Sierra Vista, AZ

3:32 AM MST on November 01, 2014 (GMT -0700)
Pershing Plaza West | Change Station
CLOSE
Current Station
Personal Weather Station
Location: Fort Huachuca, AZ
Elevation: 4915 ft
Nearby Weather Stations

Elev 4915 ft 31.56 °N, 110.35 °W | Updated 2 seconds ago

Partly Cloudy
Partly Cloudy
64.2 °F
Feels Like 64.2 °F
N
6.0
Wind Variable Wind from SE
Gusts 7.6 mph

Today
High -- | Low -- °F
--% Chance of Precip.
Yesterday
High -- | Low -- °F
Precip. -- in
6:37 AM 5:31 PM
Waxing Gibbous, 65% visible
Pressure 29.86 in
Visibility 10.0 miles
Clouds Clear
Dew Point 47 °F
Humidity 54%
Rainfall 0.00 in
Snow Depth Not available.
UV 0 out of 12
Pollen 5.00 out of 12
Air Quality Not available.
Flu Activity Not available.
METAR KFHU 010956Z AUTO 19008KT 10SM CLR 18/07 A3003 RMK AO2 SLP111 T01830067 $

More Conditions Fewer Conditions

Pressure 29.86 in
Visibility 10.0 miles
Clouds Clear
Dew Point 47 °F
Humidity 54%
Rainfall 0.00 in
Snow Depth Not available.
UV 0 out of 12
Pollen 5.00 out of 12
Air Quality Not available.
Flu Activity Not available.
METAR KFHU 010956Z AUTO 19008KT 10SM CLR 18/07 A3003 RMK AO2 SLP111 T01830067 $

More Conditions Fewer Conditions

10-Day Weather Forecast

Almanac

Astronomy

Nov. 01, 2014 Rise Set
Actual Time
Civil Twilight
Nautical Twilight
Astronomical Twilight
Moon
Length of Visible Light
Length of Day
Tomorrow will be .
, % of the Moon is Illuminated

Today's Extremes

State Highs State Lows

Community

WunderPhotos

Upload Photos

1,766,874 photos uploaded!

WunderBlogs® & News

Nearby

Air Quality

  Air Quality AQ Index Pollutant
Not available.

Snow Depth

Station Depth Elevation

Earthquake Activity

City Distance Mag. Time & Date
Minimum magnitude displayed is 2.5.

Coastal Water Temperatures

Place Temperature

Nearby Weather Stations